createdAt,value
2023-02-14T06:33:19.724Z,14.73
2023-02-14T06:35:47.001Z,14.43
2023-02-14T06:38:14.115Z,14.00
2023-02-14T06:40:41.428Z,13.82
2023-02-14T06:43:08.593Z,15.15
2023-02-14T06:45:36.490Z,14.43
2023-02-14T06:48:03.915Z,14.88
2023-02-14T06:50:31.164Z,16.58
2023-02-14T06:52:58.442Z,15.70
2023-02-14T06:55:26.373Z,13.98
2023-02-14T06:57:53.955Z,13.30
2023-02-14T07:00:21.925Z,14.45
2023-02-14T07:02:50.489Z,12.35
2023-02-14T07:05:19.161Z,15.32
2023-02-14T07:07:47.074Z,13.55
2023-02-14T07:10:19.012Z,13.85
2023-02-14T07:12:48.943Z,13.43
2023-02-14T07:15:17.408Z,13.02
2023-02-14T07:17:46.133Z,13.25
2023-02-14T07:20:16.017Z,12.82
2023-02-14T07:22:45.268Z,13.52
2023-02-14T07:25:15.868Z,17.13
2023-02-14T07:27:44.308Z,13.75
2023-02-14T07:30:14.985Z,11.07
2023-02-14T07:32:44.305Z,10.85
2023-02-14T07:35:14.886Z,11.18
2023-02-14T07:37:44.101Z,10.25
2023-02-14T07:40:15.003Z,9.27
2023-02-14T07:42:45.241Z,9.65
2023-02-14T07:45:21.637Z,10.07
2023-02-14T07:47:52.880Z,9.77
2023-02-14T07:50:21.538Z,8.88
2023-02-14T07:52:50.620Z,9.45
2023-02-14T07:55:19.483Z,8.80
2023-02-14T07:57:50.134Z,8.88
2023-02-14T08:00:18.922Z,9.35
2023-02-14T08:02:46.773Z,9.93
2023-02-14T08:05:14.834Z,10.93
2023-02-14T08:07:43.168Z,9.40
2023-02-14T08:10:12.911Z,10.52
2023-02-14T08:12:59.031Z,8.75
2023-02-14T08:15:53.749Z,11.27
2023-02-14T08:18:27.416Z,9.98
2023-02-14T08:20:55.306Z,9.93
2023-02-14T08:23:23.664Z,11.15
2023-02-14T08:25:52.926Z,10.60
2023-02-14T08:28:23.602Z,11.55
2023-02-14T08:30:52.492Z,10.55
2023-02-14T08:33:20.893Z,10.00
2023-02-14T08:35:48.583Z,10.80
2023-02-14T08:38:16.019Z,9.45
2023-02-14T08:40:47.343Z,9.77
2023-02-14T08:43:15.109Z,10.45
2023-02-14T08:45:43.503Z,10.57
2023-02-14T08:48:13.801Z,10.82
2023-02-14T08:50:41.530Z,9.95
2023-02-14T08:53:14.475Z,11.20
2023-02-14T08:55:50.984Z,11.63
2023-02-14T08:58:25.042Z,9.73
2023-02-14T09:00:58.945Z,9.73
2023-02-14T09:03:39.751Z,11.00
2023-02-14T09:06:23.516Z,11.35
2023-02-14T09:09:02.409Z,11.18
2023-02-14T09:11:35.956Z,12.00
2023-02-14T09:14:16.143Z,11.52
2023-02-14T09:16:50.109Z,12.25
2023-02-14T09:19:29.445Z,11.65
2023-02-14T09:22:03.546Z,12.02
2023-02-14T09:24:36.980Z,12.60
2023-02-14T09:27:09.386Z,11.30
2023-02-14T09:29:38.462Z,11.77
2023-02-14T09:32:12.486Z,11.88
2023-02-14T09:34:52.764Z,12.48
2023-02-14T09:37:27.151Z,12.68
2023-02-14T09:39:57.819Z,12.15
2023-02-14T09:42:50.599Z,11.57
2023-02-14T09:45:25.201Z,11.70
2023-02-14T09:48:07.527Z,13.23
2023-02-14T09:50:55.616Z,12.03
2023-02-14T09:53:33.509Z,11.68
2023-02-14T09:56:19.994Z,12.57
2023-02-14T09:58:51.267Z,11.82
2023-02-14T10:01:43.208Z,11.80
2023-02-14T10:04:34.728Z,12.48
2023-02-14T10:07:19.621Z,12.55
2023-02-14T10:10:15.046Z,12.20
2023-02-14T10:13:02.141Z,12.68
2023-02-14T10:15:39.338Z,13.20
2023-02-14T10:18:21.970Z,13.45
2023-02-14T10:21:04.820Z,12.38
2023-02-14T10:23:47.056Z,12.05
2023-02-14T10:26:35.970Z,11.10
2023-02-14T10:29:07.377Z,12.00
2023-02-14T10:31:42.276Z,10.57
2023-02-14T10:34:24.350Z,10.50
2023-02-14T10:37:26.848Z,10.15
2023-02-14T10:40:17.434Z,10.52
2023-02-14T10:42:57.765Z,10.38
2023-02-14T10:46:18.090Z,10.38
2023-02-14T10:49:05.133Z,10.07
2023-02-14T10:51:37.369Z,9.18
2023-02-14T10:54:30.563Z,9.18
2023-02-14T11:00:13.382Z,8.38
2023-02-14T11:02:53.335Z,8.52
2023-02-14T11:05:31.978Z,9.65
2023-02-14T11:08:03.620Z,8.40
2023-02-14T11:10:36.808Z,7.60
2023-02-14T11:13:35.568Z,7.47
2023-02-14T11:16:10.137Z,8.25
2023-02-14T11:18:41.126Z,9.32
2023-02-14T11:21:18.135Z,9.63
2023-02-14T11:23:48.431Z,9.65
2023-02-14T11:26:33.205Z,8.45
2023-02-14T11:29:04.065Z,10.25
2023-02-14T11:31:38.553Z,11.25
2023-02-14T11:34:23.724Z,12.48
2023-02-14T11:36:51.537Z,12.85
2023-02-14T11:39:30.137Z,13.98
2023-02-14T11:42:00.849Z,12.93
2023-02-14T11:44:30.654Z,12.90
2023-02-14T11:47:16.129Z,12.88
2023-02-14T11:49:56.250Z,12.32
2023-02-14T11:52:26.806Z,12.82
2023-02-14T11:54:59.273Z,12.43
2023-02-14T11:57:33.438Z,13.63
2023-02-14T12:00:12.952Z,12.75
2023-02-14T12:02:45.860Z,13.63
2023-02-14T12:06:19.276Z,15.18
2023-02-14T12:08:46.983Z,15.68
2023-02-14T12:11:23.873Z,14.05
2023-02-14T12:14:21.827Z,15.43
2023-02-14T12:17:02.944Z,14.70
2023-02-14T12:19:42.428Z,15.60
2023-02-14T12:22:14.726Z,14.40
2023-02-14T12:25:04.497Z,15.73
2023-02-14T12:27:54.529Z,13.57
2023-02-14T12:30:24.459Z,16.13
2023-02-14T12:32:57.699Z,15.32
2023-02-14T12:35:59.035Z,15.07
2023-02-14T12:38:29.322Z,15.27
2023-02-14T12:41:04.692Z,14.25
2023-02-14T12:43:41.004Z,14.02
2023-02-14T12:46:33.672Z,15.82
2023-02-14T12:49:28.196Z,10.65
2023-02-14T12:52:18.140Z,14.95
2023-02-14T12:54:53.903Z,14.82
2023-02-14T12:58:07.276Z,15.32
2023-02-14T13:00:56.004Z,14.60
2023-02-14T13:04:21.685Z,15.45
2023-02-14T13:07:09.564Z,14.48
2023-02-14T13:10:04.757Z,15.15
2023-02-14T13:12:45.854Z,14.05
2023-02-14T13:15:29.652Z,15.68
2023-02-14T13:18:08.982Z,14.45
2023-02-14T13:20:51.300Z,13.00
2023-02-14T13:23:25.178Z,15.50
2023-02-14T13:26:06.039Z,15.60
2023-02-14T13:28:36.085Z,16.08
2023-02-14T13:31:04.796Z,14.07
2023-02-14T13:33:37.026Z,15.45
2023-02-14T13:36:14.678Z,15.23
2023-02-14T13:41:27.393Z,14.93
2023-02-14T13:44:01.736Z,14.65
2023-02-14T13:46:35.192Z,14.30
2023-02-14T13:49:29.222Z,14.20
2023-02-14T13:51:59.250Z,14.40
2023-02-14T13:54:43.445Z,14.70
2023-02-14T13:57:41.210Z,15.18
2023-02-14T14:00:19.061Z,14.05
2023-02-14T14:02:54.723Z,15.20
2023-02-14T14:05:47.676Z,14.88
2023-02-14T14:08:20.718Z,13.88
2023-02-14T14:13:40.904Z,15.55
2023-02-14T14:16:24.526Z,15.02
2023-02-14T14:18:56.393Z,15.02
2023-02-14T14:39:34.926Z,14.52
2023-02-14T14:45:47.089Z,14.23
2023-02-14T15:28:39.003Z,14.15
2023-02-14T15:31:08.321Z,15.55
2023-02-14T15:33:40.469Z,16.95
2023-02-14T15:40:01.804Z,18.40
2023-02-14T15:42:35.780Z,16.77
2023-02-14T15:49:43.227Z,14.85
2023-02-14T15:52:18.578Z,16.13
2023-02-14T15:54:47.353Z,17.90
2023-02-14T15:57:24.514Z,17.15
2023-02-14T16:03:37.079Z,19.17
2023-02-14T16:06:05.254Z,16.98
2023-02-14T16:08:38.108Z,16.63
2023-02-14T16:11:35.507Z,17.40
2023-02-14T16:14:31.187Z,17.88
2023-02-14T16:17:13.036Z,18.48
2023-02-14T16:19:45.962Z,16.70
2023-02-14T16:24:51.914Z,16.10
2023-02-14T16:27:19.062Z,16.75
2023-02-14T16:29:46.179Z,18.13
2023-02-14T16:32:22.789Z,18.20
2023-02-14T16:34:50.658Z,19.30
2023-02-14T16:37:33.615Z,19.38
2023-02-14T16:40:01.857Z,19.48
2023-02-14T16:42:31.445Z,15.23
2023-02-14T16:44:58.748Z,18.13
2023-02-14T16:47:27.802Z,17.67
2023-02-14T16:49:55.254Z,18.27
2023-02-14T16:52:24.971Z,16.70
2023-02-14T16:54:52.733Z,18.45
2023-02-14T16:57:37.568Z,18.65
2023-02-14T17:00:07.099Z,19.00
